Flight Track Log - Related Links

Times and Time Zones

All times are in EDT time to prevent confusion due to time zone crossing. See the N904PA flight status page for this flight to view local times or setup timezone preferences in your user account.

Time Position Orientation Groundspeed Altitude Reporting Facility
EDT Latitude Longitude Course Direction KTS MPH feet Rate Location/Type
Fri 09:14:56 PM 34.2300 -118.5869 344° North 211 243 5,900  Level Los Angeles Center
Fri 09:15:58 PM 34.2983 -118.6139 342° North 214 246 6,300 353 Climbing Los Angeles Center
Fri 09:17:12 PM 34.3569 -118.6367 342° North 219 252 6,700 394 Climbing Los Angeles Center
Fri 09:18:15 PM 34.4264 -118.6639 342° North 220 253 7,200 532 Climbing Los Angeles Center
Fri 09:19:00 PM -19.9190 -160.1375 122° Southeast  Level Estimated
Fri 09:19:16 PM 34.4831 -118.6850 343° North 213 245 7,800  Level Los Angeles Center
Fri 09:20:18 PM 34.5378 -118.7078 341° North 208 239 8,500 662 Climbing Los Angeles Center
Fri 09:21:32 PM 34.5925 -118.7314 340° North 209 241 9,300 794 Climbing Los Angeles Center
Fri 09:22:34 PM 34.6722 -118.7575 345° North 214 246 10,300 629 Climbing Los Angeles Center
Fri 09:23:36 PM 34.7297 -118.7803 342° North 221 254 10,600 145 Climbing Los Angeles Center
Fri 09:24:38 PM 34.7897 -118.8047 342° North 229 264 10,600  Level Los Angeles Center
Fri 09:25:40 PM 34.8492 -118.8286 342° North 226 260 10,600  Level Los Angeles Center
Fri 09:26:42 PM 34.9197 -118.8544 343° North 230 265 10,600  Level Los Angeles Center
Fri 09:27:44 PM 34.9814 -118.8781 343° North 230 265 10,600  Level Los Angeles Center
Fri 09:28:45 PM 35.0428 -118.9044 341° North 234 269 10,600 -683 Level Los Angeles Center
Fri 09:29:47 PM 35.1064 -118.9286 343° North 240 276 9,200 -1,210 Descending Los Angeles Center
Fri 09:30:49 PM 35.1719 -118.9539 343° North 246 283 8,100 -726 Descending Los Angeles Center
Fri 09:31:51 PM 35.2336 -118.9764 343° North 241 277 7,700 -1,258 Descending Los Angeles Center
Fri 09:32:53 PM 35.2936 -118.9933 347° North 232 267 5,500 -2,129 Descending Los Angeles Center
Fri 09:34:00 PM 35.3295 -119.0130 336° Northwest  Level FlightAware Approximate

Login

Don't have an account? Register now (free) for customized features, flight alerts, and more!